createdAt,value
2023-03-27T00:00:16.332Z,93.10
2023-03-27T00:02:47.000Z,93.30
2023-03-27T00:05:16.237Z,92.90
2023-03-27T00:07:44.568Z,93.70
2023-03-27T00:10:13.046Z,93.30
2023-03-27T00:12:40.896Z,93.80
2023-03-27T00:15:09.758Z,92.90
2023-03-27T00:17:37.658Z,92.80
2023-03-27T00:20:07.649Z,91.70
2023-03-27T00:22:36.040Z,92.20
2023-03-27T00:25:05.184Z,91.50
2023-03-27T00:27:33.077Z,90.90
2023-03-27T00:30:00.953Z,90.50
2023-03-27T00:32:28.812Z,90.80
2023-03-27T00:34:56.627Z,91.20
2023-03-27T00:37:25.911Z,90.90
2023-03-27T00:39:54.110Z,91.60
2023-03-27T00:42:24.545Z,91.10
2023-03-27T00:44:53.942Z,91.50
2023-03-27T00:47:30.919Z,90.90
2023-03-27T00:50:00.306Z,90.80
2023-03-27T00:52:31.497Z,91.30
2023-03-27T00:55:03.833Z,91.20
2023-03-27T00:57:32.013Z,91.10
2023-03-27T01:00:01.063Z,91.70
2023-03-27T01:02:29.575Z,91.50
2023-03-27T01:04:58.308Z,91.40
2023-03-27T01:07:26.165Z,91.10
2023-03-27T01:09:56.387Z,91.50
2023-03-27T01:12:34.583Z,91.50
2023-03-27T01:15:15.379Z,92.00
2023-03-27T01:17:58.204Z,92.70
2023-03-27T01:21:06.553Z,92.60
2023-03-27T01:24:12.716Z,92.50
2023-03-27T01:27:05.369Z,92.50
2023-03-27T01:29:42.882Z,91.80
2023-03-27T01:33:02.476Z,90.70
2023-03-27T01:35:57.922Z,90.90
2023-03-27T01:39:07.328Z,90.60
2023-03-27T01:41:43.435Z,90.80
2023-03-27T01:44:16.719Z,90.60
2023-03-27T01:46:51.219Z,90.70
2023-03-27T01:49:24.986Z,90.40
2023-03-27T01:51:57.334Z,90.40
2023-03-27T01:54:29.095Z,90.30
2023-03-27T01:57:04.344Z,89.20
2023-03-27T01:59:38.592Z,89.00
2023-03-27T02:02:11.444Z,90.10
2023-03-27T02:04:46.860Z,90.30
2023-03-27T02:07:19.724Z,90.20
2023-03-27T02:09:50.857Z,89.70
2023-03-27T02:12:23.476Z,89.70
2023-03-27T02:14:55.408Z,90.60
2023-03-27T02:17:26.421Z,89.50
2023-03-27T02:19:59.113Z,90.40
2023-03-27T02:22:38.509Z,90.80
2023-03-27T02:25:27.463Z,90.90
2023-03-27T02:28:09.774Z,90.70
2023-03-27T02:30:43.348Z,90.50
2023-03-27T02:33:19.027Z,90.20
2023-03-27T02:35:55.268Z,90.50
2023-03-27T02:38:32.910Z,90.10
2023-03-27T02:41:10.156Z,90.30
2023-03-27T02:43:46.789Z,90.60
2023-03-27T02:46:18.799Z,90.00
2023-03-27T02:48:49.988Z,89.90
2023-03-27T02:51:23.955Z,87.90
2023-03-27T02:53:57.596Z,88.30
2023-03-27T02:56:28.322Z,89.10
2023-03-27T02:59:01.316Z,89.10
2023-03-27T03:01:30.750Z,90.30
2023-03-27T03:04:01.157Z,89.70
2023-03-27T03:06:30.646Z,88.50
2023-03-27T03:09:02.848Z,89.60
2023-03-27T03:11:31.270Z,88.40
2023-03-27T03:14:00.661Z,88.80
2023-03-27T03:16:29.668Z,86.40
2023-03-27T03:18:57.831Z,86.30
2023-03-27T03:21:25.687Z,86.80
2023-03-27T03:23:57.614Z,85.60
2023-03-27T03:26:27.053Z,85.70
2023-03-27T03:29:01.347Z,85.20
2023-03-27T03:31:44.523Z,84.00
2023-03-27T03:34:13.483Z,84.30
2023-03-27T03:36:42.973Z,83.70
2023-03-27T03:39:12.604Z,83.50
2023-03-27T03:41:40.840Z,84.60
2023-03-27T03:44:09.971Z,84.50
2023-03-27T03:46:39.966Z,84.70
2023-03-27T03:49:07.975Z,83.50
2023-03-27T03:51:36.863Z,84.30
2023-03-27T03:54:06.670Z,85.40
2023-03-27T03:56:34.745Z,86.00
2023-03-27T03:59:02.886Z,84.60
2023-03-27T04:01:30.839Z,85.20
2023-03-27T04:04:00.304Z,83.20
2023-03-27T04:06:30.891Z,84.30
2023-03-27T04:08:59.138Z,84.70
2023-03-27T04:11:26.984Z,84.90
2023-03-27T04:13:54.818Z,84.80
2023-03-27T04:16:22.754Z,83.70
2023-03-27T04:18:54.391Z,83.80
2023-03-27T04:21:26.550Z,82.90
2023-03-27T04:23:54.417Z,83.10
2023-03-27T04:26:26.366Z,85.20
2023-03-27T04:28:54.721Z,84.90
2023-03-27T04:31:22.664Z,83.80
2023-03-27T04:33:52.337Z,84.00
2023-03-27T04:36:20.625Z,83.50
2023-03-27T04:38:50.096Z,84.20
2023-03-27T04:41:18.482Z,84.20
2023-03-27T04:43:46.349Z,85.90
2023-03-27T04:46:14.285Z,83.80
2023-03-27T04:48:42.609Z,84.90
2023-03-27T04:51:10.489Z,83.90
2023-03-27T04:53:42.871Z,85.60
2023-03-27T04:56:12.394Z,84.20
2023-03-27T04:58:41.373Z,84.70
2023-03-27T05:01:09.267Z,83.30
2023-03-27T05:03:37.188Z,82.80
2023-03-27T05:06:05.701Z,82.10
2023-03-27T05:08:33.807Z,80.00
2023-03-27T05:11:01.830Z,78.00
2023-03-27T05:13:31.097Z,76.20
2023-03-27T05:16:01.684Z,75.80
2023-03-27T05:18:30.988Z,74.10
2023-03-27T05:20:59.353Z,71.60
2023-03-27T05:23:27.379Z,72.30
2023-03-27T05:26:00.025Z,72.70
2023-03-27T05:28:30.566Z,72.00
2023-03-27T05:30:58.907Z,71.60
2023-03-27T05:33:26.970Z,70.50
2023-03-27T05:35:54.874Z,70.30
2023-03-27T05:38:24.617Z,71.50
2023-03-27T05:40:53.254Z,71.50
2023-03-27T05:43:21.314Z,72.60
2023-03-27T05:45:50.560Z,71.80
2023-03-27T05:48:18.468Z,68.50
2023-03-27T05:50:46.845Z,66.40
2023-03-27T05:53:15.663Z,63.10
2023-03-27T05:55:43.588Z,63.00
2023-03-27T05:58:13.227Z,64.30
2023-03-27T06:00:43.341Z,65.10
2023-03-27T06:03:14.485Z,59.80
2023-03-27T06:05:42.639Z,59.80
2023-03-27T06:08:11.649Z,58.40
2023-03-27T06:10:43.297Z,56.40
2023-03-27T06:13:13.626Z,54.60
2023-03-27T06:15:43.426Z,56.10
2023-03-27T06:18:12.828Z,53.40
2023-03-27T06:20:42.379Z,53.60
2023-03-27T06:23:10.269Z,53.50
2023-03-27T06:25:39.806Z,53.00
2023-03-27T06:28:09.489Z,53.20
2023-03-27T06:30:38.878Z,48.60
2023-03-27T06:33:08.704Z,49.20
2023-03-27T06:35:38.077Z,50.50
2023-03-27T06:38:06.523Z,49.40
2023-03-27T06:40:36.048Z,48.90
2023-03-27T06:43:05.806Z,45.40
2023-03-27T06:45:35.657Z,45.40
2023-03-27T06:48:15.427Z,45.40
2023-03-27T06:50:50.937Z,41.80
2023-03-27T06:55:51.326Z,44.00
2023-03-27T06:58:19.739Z,41.90
2023-03-27T07:00:49.600Z,42.00
2023-03-27T07:03:18.953Z,42.10
2023-03-27T07:05:48.989Z,44.30
2023-03-27T07:08:24.775Z,40.60
2023-03-27T07:11:09.831Z,42.80
2023-03-27T07:13:40.989Z,40.90
2023-03-27T07:16:10.286Z,41.00
2023-03-27T07:18:38.186Z,39.40
2023-03-27T07:21:07.697Z,37.90
2023-03-27T07:23:37.196Z,40.20
2023-03-27T07:26:05.409Z,39.00
2023-03-27T07:28:33.495Z,41.10
2023-03-27T07:31:01.949Z,39.50
2023-03-27T07:33:29.925Z,38.20
2023-03-27T07:35:58.041Z,35.70
2023-03-27T07:38:26.310Z,36.70
2023-03-27T07:40:55.523Z,38.60
2023-03-27T07:43:23.419Z,41.60
2023-03-27T07:45:51.514Z,36.30
2023-03-27T07:48:19.609Z,38.50
2023-03-27T07:50:47.769Z,39.40
2023-03-27T07:53:34.094Z,40.20
2023-03-27T07:56:03.955Z,42.20
2023-03-27T07:58:32.038Z,43.30
2023-03-27T08:01:02.461Z,44.50
2023-03-27T08:03:32.073Z,43.60
2023-03-27T08:06:01.479Z,43.30
2023-03-27T08:08:29.681Z,47.00
2023-03-27T08:10:58.346Z,46.00
2023-03-27T08:13:27.791Z,48.00
2023-03-27T08:16:04.200Z,46.90
2023-03-27T08:18:32.128Z,44.80
2023-03-27T08:21:01.940Z,41.70
2023-03-27T08:23:31.343Z,42.50
2023-03-27T08:26:00.639Z,43.70
2023-03-27T08:28:30.108Z,41.60
2023-03-27T08:31:02.906Z,41.10
2023-03-27T08:33:31.690Z,42.70
2023-03-27T08:35:59.815Z,41.00
2023-03-27T08:38:28.613Z,39.90
2023-03-27T08:40:59.151Z,39.20
2023-03-27T08:43:31.672Z,38.50
2023-03-27T08:46:02.958Z,39.30
2023-03-27T08:48:34.919Z,40.70
2023-03-27T08:51:06.407Z,41.80
2023-03-27T08:53:41.707Z,39.30
2023-03-27T08:56:14.137Z,42.30
2023-03-27T08:58:44.499Z,44.50
2023-03-27T09:01:22.041Z,45.50
2023-03-27T09:03:57.408Z,43.70
2023-03-27T09:06:28.605Z,43.80
2023-03-27T09:09:05.004Z,39.80
2023-03-27T09:11:42.445Z,40.80
2023-03-27T09:14:19.412Z,44.10
2023-03-27T09:16:49.995Z,43.30
2023-03-27T09:19:26.094Z,44.10
2023-03-27T09:21:58.039Z,43.20
2023-03-27T09:24:30.458Z,42.50
2023-03-27T09:27:07.133Z,43.10
2023-03-27T09:29:40.449Z,42.80
2023-03-27T09:32:14.705Z,45.90
2023-03-27T09:34:43.061Z,42.90
2023-03-27T09:37:12.978Z,44.90
2023-03-27T09:39:46.783Z,39.30
2023-03-27T09:42:19.335Z,39.40
2023-03-27T09:44:52.116Z,39.70
2023-03-27T09:47:26.448Z,36.70
2023-03-27T09:49:57.516Z,33.30
2023-03-27T09:52:36.894Z,33.40
2023-03-27T09:55:06.413Z,38.50
2023-03-27T09:57:37.428Z,41.30
2023-03-27T10:00:26.977Z,48.40
2023-03-27T10:03:01.813Z,51.40
2023-03-27T10:05:31.523Z,54.60
2023-03-27T10:08:00.949Z,53.60
2023-03-27T10:10:32.395Z,58.90
2023-03-27T10:13:03.389Z,56.80
2023-03-27T10:15:35.687Z,52.20
2023-03-27T10:18:09.567Z,43.30
2023-03-27T10:20:37.492Z,35.40
2023-03-27T10:23:10.113Z,40.90
2023-03-27T10:25:40.102Z,37.20
2023-03-27T10:28:18.544Z,38.80
2023-03-27T10:30:49.229Z,44.10
2023-03-27T10:33:30.758Z,47.50
2023-03-27T10:35:59.931Z,51.70
2023-03-27T10:38:28.686Z,51.10
2023-03-27T10:40:57.833Z,54.10
2023-03-27T10:43:31.532Z,59.10
2023-03-27T10:46:04.964Z,65.90
2023-03-27T10:48:42.796Z,72.00
2023-03-27T10:51:23.683Z,74.90
2023-03-27T10:53:57.141Z,80.90
2023-03-27T10:56:29.266Z,84.00
2023-03-27T10:59:01.785Z,89.30
2023-03-27T11:01:36.193Z,83.30
2023-03-27T11:04:09.822Z,80.50
2023-03-27T11:06:42.312Z,70.40
2023-03-27T11:09:17.205Z,74.30
2023-03-27T11:11:50.325Z,68.70
2023-03-27T11:14:21.812Z,59.50
2023-03-27T11:16:55.470Z,65.50
2023-03-27T11:19:33.831Z,54.00
2023-03-27T11:22:06.876Z,52.30
2023-03-27T11:24:39.366Z,46.50
2023-03-27T11:27:14.718Z,47.20
2023-03-27T11:29:48.199Z,46.40
2023-03-27T11:32:28.390Z,48.10
2023-03-27T11:35:04.212Z,50.50
2023-03-27T11:37:41.103Z,52.70
2023-03-27T11:40:14.660Z,57.40
2023-03-27T11:42:44.872Z,60.00
2023-03-27T11:45:14.068Z,64.30
2023-03-27T11:47:57.243Z,66.40
2023-03-27T11:50:33.773Z,63.80
2023-03-27T11:53:30.402Z,63.00
2023-03-27T11:56:16.814Z,67.20
2023-03-27T11:58:56.615Z,61.40
2023-03-27T12:01:28.009Z,59.90
2023-03-27T12:04:15.589Z,57.20
2023-03-27T12:06:51.034Z,62.80
2023-03-27T12:09:41.471Z,59.90
2023-03-27T12:12:28.175Z,59.20
2023-03-27T12:15:07.055Z,60.20
2023-03-27T12:17:48.142Z,50.20
2023-03-27T12:20:52.782Z,57.40
2023-03-27T12:23:41.519Z,47.70
2023-03-27T12:26:21.339Z,46.60
2023-03-27T12:29:00.657Z,43.50
2023-03-27T12:31:53.776Z,43.40
2023-03-27T12:34:41.438Z,40.60
2023-03-27T12:37:12.529Z,42.20
2023-03-27T12:39:51.902Z,39.20
2023-03-27T12:42:44.963Z,36.00
2023-03-27T12:45:18.251Z,36.20
2023-03-27T12:47:47.112Z,39.00
2023-03-27T12:50:21.358Z,36.00
2023-03-27T12:52:53.225Z,32.40
2023-03-27T12:55:36.057Z,32.70
2023-03-27T12:58:06.192Z,32.40
2023-03-27T13:00:34.363Z,34.90
2023-03-27T13:03:26.071Z,31.20
2023-03-27T13:06:22.627Z,30.00
2023-03-27T13:09:19.518Z,32.20
2023-03-27T13:12:08.353Z,30.90
2023-03-27T13:14:53.284Z,30.10
2023-03-27T13:17:46.446Z,32.30
2023-03-27T13:20:24.204Z,29.70
2023-03-27T13:23:06.787Z,28.60
2023-03-27T13:25:54.788Z,27.00
2023-03-27T13:28:32.446Z,27.40
2023-03-27T13:31:01.825Z,29.10
2023-03-27T13:33:43.621Z,27.60
2023-03-27T13:36:19.350Z,27.70
2023-03-27T13:39:15.012Z,28.20
2023-03-27T13:42:02.577Z,28.30
2023-03-27T13:44:41.900Z,29.80
2023-03-27T13:47:29.934Z,30.50
2023-03-27T13:50:16.678Z,34.10
2023-03-27T13:53:13.271Z,37.00
2023-03-27T13:56:03.195Z,37.60
2023-03-27T13:59:15.333Z,34.70
2023-03-27T14:01:55.819Z,34.60
2023-03-27T14:04:45.885Z,33.70
2023-03-27T14:07:46.562Z,32.10
2023-03-27T14:10:42.085Z,30.40
2023-03-27T14:13:26.643Z,29.70
2023-03-27T14:16:17.437Z,29.30
2023-03-27T14:19:10.422Z,28.80
2023-03-27T14:21:52.323Z,28.60
2023-03-27T14:24:30.438Z,31.60
2023-03-27T14:26:59.607Z,27.90
2023-03-27T14:29:28.896Z,29.00
2023-03-27T14:32:05.850Z,29.80
2023-03-27T14:34:43.766Z,29.50
2023-03-27T14:37:29.029Z,27.00
2023-03-27T14:39:57.605Z,28.20
2023-03-27T14:42:32.005Z,28.60
2023-03-27T14:45:17.996Z,29.50
2023-03-27T14:47:50.672Z,31.00
2023-03-27T14:50:19.335Z,34.80
2023-03-27T14:52:52.535Z,37.40
2023-03-27T14:55:22.123Z,37.00
2023-03-27T14:57:51.028Z,40.00
2023-03-27T15:00:23.517Z,38.80
2023-03-27T15:02:55.461Z,38.50
2023-03-27T15:05:23.595Z,37.90
2023-03-27T15:07:52.044Z,37.30
2023-03-27T15:10:26.222Z,36.70
2023-03-27T15:12:56.061Z,36.70
2023-03-27T15:15:27.622Z,38.30
2023-03-27T15:17:59.779Z,38.90
2023-03-27T15:20:31.822Z,38.60
2023-03-27T15:23:03.633Z,38.00
2023-03-27T15:25:37.315Z,40.20
2023-03-27T15:28:12.819Z,37.90
2023-03-27T15:30:45.854Z,36.90
2023-03-27T15:33:20.345Z,37.20
2023-03-27T15:35:51.614Z,35.90
2023-03-27T15:38:26.394Z,35.50
2023-03-27T15:41:02.757Z,38.80
2023-03-27T15:43:31.545Z,36.00
2023-03-27T15:46:12.848Z,36.10
2023-03-27T15:48:45.301Z,38.60
2023-03-27T15:51:27.864Z,38.90
2023-03-27T15:53:56.717Z,39.50
2023-03-27T15:56:27.175Z,41.80
2023-03-27T15:58:58.317Z,43.90
2023-03-27T16:01:30.004Z,41.80
2023-03-27T16:04:04.559Z,40.80
2023-03-27T16:06:36.651Z,40.90
2023-03-27T16:09:05.895Z,41.90
2023-03-27T16:11:42.760Z,39.50
2023-03-27T16:14:22.790Z,37.70
2023-03-27T16:17:09.181Z,40.40
2023-03-27T16:19:45.029Z,42.30
2023-03-27T16:22:13.231Z,52.00
2023-03-27T16:24:41.403Z,54.10
2023-03-27T16:27:11.102Z,54.00
2023-03-27T16:29:38.985Z,53.00
2023-03-27T16:32:06.913Z,55.10
2023-03-27T16:34:34.972Z,55.50
2023-03-27T16:37:04.392Z,55.80
2023-03-27T16:39:32.383Z,60.70
2023-03-27T16:42:00.325Z,65.20
2023-03-27T16:44:28.198Z,70.00
2023-03-27T16:46:56.357Z,71.50
2023-03-27T16:49:24.200Z,75.70
2023-03-27T16:51:52.057Z,75.40
2023-03-27T16:54:21.260Z,75.10
2023-03-27T16:56:49.137Z,75.50
2023-03-27T16:59:17.182Z,77.10
2023-03-27T17:01:45.118Z,78.50
2023-03-27T17:04:13.449Z,79.40
2023-03-27T17:06:41.714Z,78.00
2023-03-27T17:09:11.101Z,79.10
2023-03-27T17:11:40.600Z,80.80
2023-03-27T17:14:08.447Z,80.30
2023-03-27T17:16:36.383Z,80.40
2023-03-27T17:19:04.256Z,81.20
2023-03-27T17:21:32.197Z,81.00
2023-03-27T17:24:01.041Z,81.40
2023-03-27T17:26:30.998Z,81.50
2023-03-27T17:29:00.447Z,81.10
2023-03-27T17:31:30.675Z,80.10
2023-03-27T17:33:58.824Z,79.90
2023-03-27T17:36:39.655Z,81.00
2023-03-27T17:39:10.966Z,82.80
2023-03-27T17:41:38.825Z,82.50
2023-03-27T17:44:08.393Z,83.60
2023-03-27T17:46:36.280Z,83.50
2023-03-27T17:49:04.233Z,83.50
2023-03-27T17:51:32.083Z,82.80
2023-03-27T17:54:00.183Z,83.50
2023-03-27T17:56:28.069Z,83.70
2023-03-27T17:58:55.941Z,82.80
2023-03-27T18:01:25.719Z,83.00
2023-03-27T18:03:55.164Z,83.00
2023-03-27T18:06:23.145Z,81.50
2023-03-27T18:08:51.002Z,82.90
2023-03-27T18:11:18.999Z,81.80
2023-03-27T18:13:51.334Z,81.80
2023-03-27T18:16:20.001Z,81.50
2023-03-27T18:18:50.966Z,81.50
2023-03-27T18:21:18.896Z,81.70
2023-03-27T18:23:46.933Z,81.70
2023-03-27T18:26:15.898Z,82.60
2023-03-27T18:28:43.936Z,84.10
2023-03-27T18:31:13.476Z,83.30
2023-03-27T18:33:41.420Z,82.90
2023-03-27T18:36:11.992Z,82.60
2023-03-27T18:38:40.837Z,83.00
2023-03-27T18:41:08.951Z,82.70
2023-03-27T18:43:37.193Z,83.00
2023-03-27T18:46:07.151Z,83.50
2023-03-27T18:48:36.270Z,83.50
2023-03-27T18:51:06.318Z,82.50
2023-03-27T18:53:35.985Z,82.60
2023-03-27T18:56:04.435Z,83.20
2023-03-27T18:58:32.548Z,83.40
2023-03-27T19:01:00.817Z,82.90
2023-03-27T19:03:30.344Z,83.20
2023-03-27T19:06:02.195Z,82.30
2023-03-27T19:08:30.307Z,82.10
2023-03-27T19:10:59.744Z,81.60
2023-03-27T19:13:27.895Z,80.80
2023-03-27T19:15:55.736Z,80.70
2023-03-27T19:18:25.524Z,80.40
2023-03-27T19:20:53.380Z,80.10
2023-03-27T19:23:21.210Z,79.70
2023-03-27T19:25:49.575Z,80.00
2023-03-27T19:28:18.898Z,80.10
2023-03-27T19:30:46.979Z,79.80
2023-03-27T19:33:14.867Z,79.10
2023-03-27T19:35:42.794Z,78.40
2023-03-27T19:38:10.658Z,79.10
2023-03-27T19:40:38.535Z,79.20
2023-03-27T19:43:06.386Z,79.90
2023-03-27T19:45:35.587Z,79.80
2023-03-27T19:48:03.451Z,80.20
2023-03-27T19:50:31.753Z,80.00
2023-03-27T19:53:08.217Z,80.10
2023-03-27T19:55:36.733Z,80.30
2023-03-27T19:58:04.593Z,80.80
2023-03-27T20:00:32.648Z,81.10
2023-03-27T20:03:02.224Z,80.20
2023-03-27T20:05:30.382Z,80.20
2023-03-27T20:07:58.250Z,80.50
2023-03-27T20:10:27.121Z,80.90
2023-03-27T20:12:55.092Z,81.70
2023-03-27T20:15:23.033Z,81.70
2023-03-27T20:17:51.032Z,81.70
2023-03-27T20:20:20.395Z,81.70
2023-03-27T20:22:57.117Z,81.40
2023-03-27T20:25:28.316Z,81.30
2023-03-27T20:27:56.361Z,81.90
2023-03-27T20:30:24.243Z,82.30
2023-03-27T20:32:52.662Z,82.40
2023-03-27T20:35:24.795Z,82.40
2023-03-27T20:37:57.691Z,82.60
2023-03-27T20:40:26.434Z,82.30
2023-03-27T20:43:03.035Z,83.00
2023-03-27T20:45:31.498Z,83.00
2023-03-27T20:48:04.154Z,83.30
2023-03-27T20:50:35.294Z,84.10
2023-03-27T20:53:04.372Z,84.70
2023-03-27T20:55:34.682Z,84.50
2023-03-27T20:58:07.123Z,85.40
2023-03-27T21:00:35.134Z,85.90
2023-03-27T21:03:03.151Z,86.10
2023-03-27T21:05:32.647Z,86.10
2023-03-27T21:08:01.836Z,86.00
2023-03-27T21:10:29.721Z,86.20
2023-03-27T21:12:57.564Z,85.60
2023-03-27T21:15:25.675Z,85.60
2023-03-27T21:17:53.629Z,84.60
2023-03-27T21:20:21.589Z,84.50
2023-03-27T21:22:52.676Z,83.30
2023-03-27T21:25:22.913Z,83.10
2023-03-27T21:27:51.055Z,81.70
2023-03-27T21:30:18.987Z,81.70
2023-03-27T21:32:49.056Z,81.70
2023-03-27T21:35:17.156Z,81.10
2023-03-27T21:37:45.370Z,80.60
2023-03-27T21:40:13.889Z,80.10
2023-03-27T21:42:43.083Z,80.00
2023-03-27T21:45:11.318Z,80.40
2023-03-27T21:47:47.295Z,80.10
2023-03-27T21:50:15.954Z,79.90
2023-03-27T21:52:43.843Z,79.50
2023-03-27T21:55:11.726Z,79.10
2023-03-27T21:57:39.615Z,78.90
2023-03-27T22:00:10.374Z,77.90
2023-03-27T22:02:38.392Z,78.80
2023-03-27T22:05:07.376Z,78.80
2023-03-27T22:07:35.282Z,78.80
2023-03-27T22:10:05.443Z,78.70
2023-03-27T22:12:34.974Z,78.40
2023-03-27T22:15:02.962Z,77.70
2023-03-27T22:17:32.478Z,78.30
2023-03-27T22:20:00.383Z,79.30
2023-03-27T22:22:28.324Z,79.10
2023-03-27T22:24:56.195Z,79.30
2023-03-27T22:27:24.058Z,79.50
2023-03-27T22:29:51.891Z,79.40
2023-03-27T22:32:19.766Z,79.50
2023-03-27T22:34:50.733Z,79.50
2023-03-27T22:37:19.569Z,80.60
2023-03-27T22:39:47.831Z,80.50
2023-03-27T22:42:15.976Z,80.30
2023-03-27T22:44:43.899Z,79.50
2023-03-27T22:47:11.781Z,79.30
2023-03-27T22:49:39.627Z,79.50
2023-03-27T22:52:08.917Z,80.20
2023-03-27T22:54:36.763Z,80.20
2023-03-27T22:57:04.685Z,79.70
2023-03-27T22:59:32.569Z,79.90
2023-03-27T23:02:00.487Z,80.90
2023-03-27T23:04:29.888Z,81.20
2023-03-27T23:06:57.753Z,80.20
2023-03-27T23:09:26.954Z,79.40
2023-03-27T23:11:54.793Z,80.40
2023-03-27T23:14:22.646Z,80.60
2023-03-27T23:16:50.652Z,80.90
2023-03-27T23:19:18.741Z,80.40
2023-03-27T23:21:46.554Z,79.80
2023-03-27T23:24:14.370Z,79.60
2023-03-27T23:26:43.572Z,79.90
2023-03-27T23:29:11.403Z,79.30
2023-03-27T23:31:39.268Z,80.30
2023-03-27T23:34:07.165Z,79.30
2023-03-27T23:36:35.026Z,79.10
2023-03-27T23:39:03.032Z,79.80
2023-03-27T23:41:31.108Z,80.50
2023-03-27T23:44:00.345Z,80.20
2023-03-27T23:46:28.234Z,80.90
2023-03-27T23:48:56.072Z,80.80
2023-03-27T23:51:23.965Z,80.80
2023-03-27T23:53:51.864Z,81.10
2023-03-27T23:56:19.755Z,81.30
2023-03-27T23:58:47.564Z,81.00
